createdAt,value
2022-12-31T00:00:42.976Z,15.92
2022-12-31T00:03:46.081Z,15.87
2022-12-31T00:06:49.747Z,15.96
2022-12-31T00:09:54.605Z,15.90
2022-12-31T00:12:59.444Z,16.00
2022-12-31T00:16:12.525Z,16.03
2022-12-31T00:19:15.596Z,15.95
2022-12-31T00:22:17.679Z,15.84
2022-12-31T00:25:20.243Z,15.81
2022-12-31T00:28:22.626Z,15.71
2022-12-31T00:31:34.931Z,15.67
2022-12-31T00:34:37.421Z,15.61
2022-12-31T00:37:39.640Z,15.67
2022-12-31T00:40:41.728Z,15.55
2022-12-31T00:43:44.872Z,15.48
2022-12-31T00:46:46.857Z,15.43
2022-12-31T00:49:48.913Z,15.39
2022-12-31T00:52:53.315Z,15.45
2022-12-31T00:56:03.377Z,15.43
2022-12-31T00:59:06.125Z,15.30
2022-12-31T01:02:08.700Z,15.21
2022-12-31T01:05:11.354Z,15.12
2022-12-31T01:08:13.441Z,15.12
2022-12-31T01:11:29.673Z,15.16
2022-12-31T01:14:34.065Z,15.12
2022-12-31T01:17:36.394Z,15.08
2022-12-31T01:20:42.258Z,15.15
2022-12-31T01:23:44.848Z,15.00
2022-12-31T01:26:49.440Z,14.93
2022-12-31T01:29:51.646Z,15.00
2022-12-31T01:32:53.853Z,14.84
2022-12-31T01:35:55.869Z,14.95
2022-12-31T01:39:01.265Z,14.89
2022-12-31T01:42:03.675Z,15.01
2022-12-31T01:45:11.369Z,15.07
2022-12-31T01:48:17.980Z,14.92
2022-12-31T01:51:21.490Z,14.90
2022-12-31T01:54:27.444Z,14.95
2022-12-31T01:57:30.833Z,14.98
2022-12-31T02:00:33.585Z,14.98
2022-12-31T02:03:36.623Z,14.99
2022-12-31T02:06:43.263Z,15.01
2022-12-31T02:09:45.433Z,14.95
2022-12-31T02:12:48.751Z,14.85
2022-12-31T02:16:05.822Z,14.94
2022-12-31T02:19:27.860Z,14.89
2022-12-31T02:23:06.811Z,14.77
2022-12-31T02:26:37.837Z,14.79
2022-12-31T02:29:49.609Z,14.86
2022-12-31T02:33:02.631Z,14.83
2022-12-31T02:36:15.827Z,14.98
2022-12-31T02:39:18.661Z,15.01
2022-12-31T02:42:20.716Z,14.98
2022-12-31T02:45:29.804Z,14.92
2022-12-31T02:48:46.695Z,14.95
2022-12-31T02:52:02.210Z,14.91
2022-12-31T02:55:14.722Z,14.85
2022-12-31T02:59:05.017Z,14.83
2022-12-31T03:02:16.683Z,14.85
2022-12-31T03:05:26.140Z,14.74
2022-12-31T03:08:28.591Z,14.68
2022-12-31T03:11:49.260Z,14.59
2022-12-31T03:14:53.137Z,14.69
2022-12-31T03:18:02.994Z,14.67
2022-12-31T03:21:31.595Z,14.65
2022-12-31T03:24:52.546Z,14.71
2022-12-31T03:27:56.026Z,14.75
2022-12-31T03:31:02.188Z,14.80
2022-12-31T03:34:07.968Z,14.81
2022-12-31T03:37:11.333Z,14.79
2022-12-31T03:40:14.714Z,14.70
2022-12-31T03:43:19.411Z,14.76
2022-12-31T03:46:21.875Z,14.72
2022-12-31T03:49:24.431Z,14.54
2022-12-31T03:52:27.120Z,14.49
2022-12-31T03:55:30.494Z,14.40
2022-12-31T03:58:33.979Z,14.51
2022-12-31T04:01:36.246Z,14.41
2022-12-31T04:04:39.621Z,14.32
2022-12-31T04:07:42.496Z,14.45
2022-12-31T04:10:45.922Z,14.47
2022-12-31T04:13:49.025Z,14.45
2022-12-31T04:16:52.037Z,14.63
2022-12-31T04:19:55.410Z,14.57
2022-12-31T04:22:57.555Z,14.56
2022-12-31T04:26:00.358Z,14.53
2022-12-31T04:29:04.123Z,14.52
2022-12-31T04:32:07.670Z,14.61
2022-12-31T04:35:11.722Z,14.52
2022-12-31T04:38:13.828Z,14.49
2022-12-31T04:41:18.836Z,14.31
2022-12-31T04:44:21.554Z,14.20
2022-12-31T04:47:24.693Z,14.38
2022-12-31T04:50:26.890Z,14.21
2022-12-31T04:53:29.614Z,14.22
2022-12-31T04:56:33.199Z,14.21
2022-12-31T04:59:35.310Z,14.17
2022-12-31T05:02:37.814Z,14.41
2022-12-31T05:05:42.822Z,14.40
2022-12-31T05:08:44.957Z,14.55
2022-12-31T05:11:47.618Z,14.45
2022-12-31T05:14:52.048Z,14.47
2022-12-31T05:17:54.441Z,14.48
2022-12-31T05:20:56.760Z,14.51
2022-12-31T05:23:59.028Z,14.54
2022-12-31T05:27:01.285Z,14.34
2022-12-31T05:30:05.020Z,13.96
2022-12-31T05:33:07.177Z,13.41
2022-12-31T05:36:09.585Z,14.38
2022-12-31T05:39:12.512Z,14.99
2022-12-31T05:42:16.040Z,15.32
2022-12-31T05:45:18.715Z,16.01
2022-12-31T05:48:20.989Z,17.27
2022-12-31T05:51:23.171Z,17.45
2022-12-31T05:54:25.238Z,17.52
2022-12-31T05:57:27.359Z,17.59
2022-12-31T06:00:29.450Z,18.11
2022-12-31T06:03:31.738Z,18.75
2022-12-31T06:06:33.797Z,19.04
2022-12-31T06:09:35.932Z,18.98
2022-12-31T06:12:39.851Z,18.37
2022-12-31T06:15:41.905Z,17.74
2022-12-31T06:18:44.056Z,17.75
2022-12-31T06:21:46.155Z,17.36
2022-12-31T06:24:48.319Z,17.42
2022-12-31T06:27:50.342Z,17.22
2022-12-31T06:31:00.181Z,17.10
2022-12-31T06:34:02.684Z,16.84
2022-12-31T06:37:04.902Z,16.98
2022-12-31T06:40:07.956Z,16.86
2022-12-31T06:43:11.079Z,16.74
2022-12-31T06:46:16.576Z,16.99
2022-12-31T06:49:18.698Z,16.94
2022-12-31T06:52:21.432Z,16.81
2022-12-31T06:55:26.371Z,17.03
2022-12-31T06:58:28.845Z,17.33
2022-12-31T07:01:39.840Z,17.79
2022-12-31T07:05:00.630Z,18.08
2022-12-31T07:08:24.199Z,18.16
2022-12-31T07:11:52.286Z,18.47
2022-12-31T07:15:16.142Z,18.73
2022-12-31T07:18:33.064Z,18.61
2022-12-31T07:21:40.176Z,18.15
2022-12-31T07:24:43.436Z,17.94
2022-12-31T07:27:57.394Z,18.09
2022-12-31T07:31:43.051Z,18.47
2022-12-31T07:34:57.285Z,18.38
2022-12-31T07:38:18.491Z,18.55
2022-12-31T07:41:27.402Z,18.90
2022-12-31T07:44:53.415Z,19.36
2022-12-31T07:48:02.116Z,19.00
2022-12-31T07:51:05.147Z,19.55
2022-12-31T07:54:13.393Z,19.54
2022-12-31T07:57:18.858Z,19.41
2022-12-31T08:00:29.545Z,19.54
2022-12-31T08:04:03.790Z,19.80
2022-12-31T08:07:18.969Z,19.62
2022-12-31T08:10:32.398Z,19.70
2022-12-31T08:13:34.575Z,19.67
2022-12-31T08:16:36.930Z,19.85
2022-12-31T08:19:39.381Z,19.60
2022-12-31T08:22:51.230Z,19.54
2022-12-31T08:26:30.152Z,19.48
2022-12-31T08:29:32.260Z,19.47
2022-12-31T08:32:57.212Z,19.41
2022-12-31T08:36:10.474Z,18.86
2022-12-31T08:39:36.419Z,19.00
2022-12-31T08:43:11.652Z,18.79
2022-12-31T08:46:27.895Z,18.58
2022-12-31T08:49:34.638Z,18.67
2022-12-31T08:52:36.934Z,19.05
2022-12-31T08:55:42.128Z,19.10
2022-12-31T08:59:12.986Z,19.91
2022-12-31T09:02:24.022Z,20.36
2022-12-31T09:05:31.957Z,19.99
2022-12-31T09:08:55.228Z,19.59
2022-12-31T09:12:20.662Z,19.53
2022-12-31T09:15:58.475Z,19.57
2022-12-31T09:19:01.373Z,20.45
2022-12-31T09:22:04.696Z,21.36
2022-12-31T09:25:14.391Z,21.96
2022-12-31T09:28:44.526Z,22.46
2022-12-31T09:32:02.091Z,22.76
2022-12-31T09:35:37.116Z,21.94
2022-12-31T09:39:00.297Z,20.91
2022-12-31T09:42:21.665Z,19.99
2022-12-31T09:46:05.180Z,20.03
2022-12-31T09:49:23.145Z,19.18
2022-12-31T09:53:02.634Z,18.81
2022-12-31T09:56:10.860Z,18.98
2022-12-31T09:59:21.717Z,19.15
2022-12-31T10:02:37.097Z,19.29
2022-12-31T10:06:22.218Z,19.45
2022-12-31T10:09:29.216Z,19.57
2022-12-31T10:12:49.352Z,20.03
2022-12-31T10:16:03.183Z,20.31
2022-12-31T10:19:17.224Z,20.43
2022-12-31T10:22:37.644Z,20.64
2022-12-31T10:26:03.771Z,20.45
2022-12-31T10:29:23.807Z,20.26
2022-12-31T10:32:52.517Z,20.20
2022-12-31T10:36:04.766Z,20.00
2022-12-31T10:39:33.609Z,19.87
2022-12-31T10:42:38.414Z,19.89
2022-12-31T10:46:40.142Z,19.87
2022-12-31T10:49:45.074Z,19.72
2022-12-31T10:53:05.312Z,19.63
2022-12-31T10:56:35.163Z,19.62
2022-12-31T11:00:06.031Z,19.53
2022-12-31T11:03:50.605Z,19.45
2022-12-31T11:07:14.306Z,19.43
2022-12-31T11:10:34.893Z,19.44
2022-12-31T11:14:21.219Z,19.32
2022-12-31T11:17:49.145Z,19.28
2022-12-31T11:21:13.929Z,19.08
2022-12-31T11:24:37.207Z,18.98
2022-12-31T11:28:18.462Z,18.92
2022-12-31T11:31:47.683Z,18.95
2022-12-31T11:35:04.675Z,19.03
2022-12-31T11:38:20.655Z,19.02
2022-12-31T11:41:39.872Z,19.05
2022-12-31T11:44:49.258Z,19.05
2022-12-31T11:48:32.946Z,19.06
2022-12-31T11:51:52.471Z,19.02
2022-12-31T11:55:12.250Z,19.03
2022-12-31T11:58:17.202Z,18.96
2022-12-31T12:01:30.951Z,18.97
2022-12-31T12:04:33.244Z,19.02
2022-12-31T12:07:35.570Z,18.89
2022-12-31T12:11:07.607Z,19.00
2022-12-31T12:14:30.100Z,18.89
2022-12-31T12:17:34.554Z,18.87
2022-12-31T12:20:38.976Z,18.79
2022-12-31T12:23:42.687Z,18.83
2022-12-31T12:26:48.987Z,18.76
2022-12-31T12:29:51.103Z,18.80
2022-12-31T12:33:01.597Z,18.76
2022-12-31T12:36:11.977Z,18.63
2022-12-31T12:39:28.976Z,18.66
2022-12-31T12:42:31.836Z,18.67
2022-12-31T12:45:51.832Z,18.65
2022-12-31T12:48:58.412Z,18.62
2022-12-31T12:52:21.716Z,18.64
2022-12-31T12:55:26.474Z,18.60
2022-12-31T12:58:43.086Z,18.59
2022-12-31T13:02:10.750Z,18.54
2022-12-31T13:05:39.872Z,18.61
2022-12-31T13:08:57.135Z,19.53
2022-12-31T13:12:56.917Z,20.40
2022-12-31T13:16:32.169Z,20.26
2022-12-31T13:19:47.706Z,20.79
2022-12-31T13:23:36.200Z,20.98
2022-12-31T13:27:02.264Z,20.63
2022-12-31T13:30:15.542Z,20.54
2022-12-31T13:33:23.269Z,21.58
2022-12-31T13:36:28.776Z,20.94
2022-12-31T13:39:36.608Z,20.59
2022-12-31T13:42:53.391Z,21.46
2022-12-31T13:46:21.239Z,21.42
2022-12-31T13:49:46.506Z,20.83
2022-12-31T13:52:57.238Z,21.87
2022-12-31T13:56:04.258Z,22.57
2022-12-31T13:59:12.902Z,21.95
2022-12-31T14:02:18.305Z,21.27
2022-12-31T14:05:30.249Z,22.04
2022-12-31T14:08:32.327Z,22.17
2022-12-31T14:11:55.283Z,21.38
2022-12-31T14:15:13.329Z,21.87
2022-12-31T14:18:37.923Z,21.97
2022-12-31T14:21:49.770Z,21.29
2022-12-31T14:24:52.522Z,20.83
2022-12-31T14:27:56.722Z,21.77
2022-12-31T14:31:37.066Z,21.75
2022-12-31T14:39:20.975Z,22.19
2022-12-31T14:42:36.881Z,21.85
2022-12-31T14:45:38.885Z,21.38
2022-12-31T14:48:46.903Z,22.20
2022-12-31T14:51:51.856Z,22.36
2022-12-31T14:55:08.085Z,21.68
2022-12-31T14:58:34.704Z,21.68
2022-12-31T15:01:49.379Z,22.60
2022-12-31T15:05:26.587Z,22.19
2022-12-31T15:08:43.152Z,21.39
2022-12-31T15:12:09.741Z,22.30
2022-12-31T15:15:33.574Z,21.47
2022-12-31T15:18:53.610Z,21.38
2022-12-31T15:22:24.435Z,21.62
2022-12-31T15:25:40.874Z,21.42
2022-12-31T15:28:43.734Z,21.09
2022-12-31T15:31:48.167Z,20.67
2022-12-31T15:35:02.115Z,21.21
2022-12-31T15:38:38.210Z,21.24
2022-12-31T15:42:10.215Z,21.05
2022-12-31T15:45:13.934Z,20.65
2022-12-31T15:48:26.376Z,20.41
2022-12-31T15:51:33.194Z,20.32
2022-12-31T15:54:39.713Z,20.14
2022-12-31T15:57:43.742Z,19.92
2022-12-31T16:01:02.319Z,19.68
2022-12-31T16:04:33.624Z,19.27
2022-12-31T16:07:35.900Z,19.56
2022-12-31T16:10:38.197Z,19.78
2022-12-31T16:13:47.358Z,19.81
2022-12-31T16:17:27.406Z,20.13
2022-12-31T16:20:32.537Z,20.17
2022-12-31T16:23:42.053Z,20.09
2022-12-31T16:26:48.325Z,20.04
2022-12-31T16:29:58.751Z,19.93
2022-12-31T16:33:04.143Z,19.85
2022-12-31T16:36:18.834Z,19.68
2022-12-31T16:39:29.539Z,19.58
2022-12-31T16:42:33.139Z,19.40
2022-12-31T16:45:36.968Z,19.23
2022-12-31T16:48:39.490Z,19.02
2022-12-31T16:51:42.513Z,19.05
2022-12-31T16:54:50.484Z,19.09
2022-12-31T16:58:03.095Z,19.05
2022-12-31T17:01:36.649Z,19.07
2022-12-31T17:04:45.916Z,19.03
2022-12-31T17:07:50.477Z,19.00
2022-12-31T17:10:56.751Z,19.01
2022-12-31T17:14:10.550Z,19.03
2022-12-31T17:17:23.756Z,18.89
2022-12-31T17:20:29.117Z,18.75
2022-12-31T17:23:33.877Z,18.83
2022-12-31T17:26:38.136Z,18.79
2022-12-31T17:29:40.415Z,18.68
2022-12-31T17:32:43.647Z,18.78
2022-12-31T17:35:46.108Z,18.59
2022-12-31T17:38:49.617Z,18.55
2022-12-31T17:41:55.805Z,18.47
2022-12-31T17:45:15.780Z,18.48
2022-12-31T17:48:20.142Z,18.32
2022-12-31T17:51:24.269Z,18.32
2022-12-31T17:54:26.764Z,18.20
2022-12-31T17:57:37.681Z,18.09
2022-12-31T18:00:39.879Z,18.03
2022-12-31T18:03:44.892Z,18.02
2022-12-31T18:06:58.620Z,17.83
2022-12-31T18:10:32.462Z,17.84
2022-12-31T18:13:41.195Z,17.70
2022-12-31T18:17:14.614Z,17.79
2022-12-31T18:20:17.896Z,17.62
2022-12-31T18:23:36.744Z,17.61
2022-12-31T18:26:51.242Z,17.63
2022-12-31T18:30:02.238Z,17.69
2022-12-31T18:33:28.239Z,17.67
2022-12-31T18:37:17.928Z,17.96
2022-12-31T18:44:32.265Z,17.88
2022-12-31T18:47:37.617Z,17.68
2022-12-31T18:50:41.105Z,17.72
2022-12-31T18:53:43.709Z,17.71
2022-12-31T18:56:49.203Z,17.54
2022-12-31T18:59:55.039Z,17.62
2022-12-31T19:02:59.595Z,17.55
2022-12-31T19:06:02.012Z,17.58
2022-12-31T19:09:09.344Z,17.50
2022-12-31T19:12:25.605Z,17.47
2022-12-31T19:15:41.600Z,17.41
2022-12-31T19:18:43.865Z,17.36
2022-12-31T19:21:46.467Z,17.36
2022-12-31T19:24:48.563Z,17.29
2022-12-31T19:27:51.559Z,17.30
2022-12-31T19:30:54.062Z,17.24
2022-12-31T19:33:56.397Z,17.18
2022-12-31T19:36:58.505Z,17.15
2022-12-31T19:40:11.673Z,16.92
2022-12-31T19:43:15.953Z,16.95
2022-12-31T19:46:18.991Z,16.85
2022-12-31T19:49:21.170Z,16.82
2022-12-31T19:52:23.255Z,16.82
2022-12-31T19:55:26.476Z,16.72
2022-12-31T19:58:32.558Z,16.74
2022-12-31T20:01:34.930Z,16.55
2022-12-31T20:04:37.150Z,16.59
2022-12-31T20:07:39.807Z,16.55
2022-12-31T20:10:41.834Z,16.49
2022-12-31T20:13:44.647Z,16.45
2022-12-31T20:16:48.958Z,16.49
2022-12-31T20:19:51.629Z,16.41
2022-12-31T20:22:53.939Z,16.42
2022-12-31T20:25:58.120Z,16.37
2022-12-31T20:29:03.382Z,16.35
2022-12-31T20:32:06.011Z,16.39
2022-12-31T20:35:08.074Z,16.38
2022-12-31T20:38:10.276Z,16.35
2022-12-31T20:41:18.757Z,16.26
2022-12-31T20:44:21.249Z,16.18
2022-12-31T20:47:23.276Z,16.30
2022-12-31T20:50:25.305Z,16.18
2022-12-31T20:53:27.926Z,16.08
2022-12-31T20:56:33.321Z,16.02
2022-12-31T20:59:35.347Z,15.92
2022-12-31T21:02:42.654Z,15.90
2022-12-31T21:05:54.472Z,15.88
2022-12-31T21:08:59.416Z,15.67
2022-12-31T21:12:20.300Z,15.70
2022-12-31T21:15:22.362Z,15.46
2022-12-31T21:18:24.662Z,15.41
2022-12-31T21:21:26.848Z,15.46
2022-12-31T21:24:28.904Z,15.39
2022-12-31T21:27:31.133Z,15.40
2022-12-31T21:30:33.656Z,15.37
2022-12-31T21:33:35.825Z,15.32
2022-12-31T21:36:37.908Z,15.20
2022-12-31T21:39:40.128Z,15.14
2022-12-31T21:42:42.344Z,15.20
2022-12-31T21:45:52.316Z,15.20
2022-12-31T21:48:58.840Z,15.22
2022-12-31T21:52:19.675Z,15.29
2022-12-31T21:55:40.472Z,16.12
2022-12-31T21:58:44.704Z,16.65
2022-12-31T22:02:05.160Z,17.06
2022-12-31T22:05:17.333Z,17.39
2022-12-31T22:08:24.588Z,17.77
2022-12-31T22:11:28.469Z,17.68
2022-12-31T22:14:30.994Z,17.47
2022-12-31T22:17:33.014Z,17.42
2022-12-31T22:20:35.916Z,17.35
2022-12-31T22:23:38.700Z,17.29
2022-12-31T22:26:46.515Z,17.06
2022-12-31T22:29:48.981Z,16.87
2022-12-31T22:32:51.299Z,16.97
2022-12-31T22:36:01.759Z,17.07
2022-12-31T22:39:04.924Z,17.01
2022-12-31T22:42:08.518Z,16.96
2022-12-31T22:45:11.965Z,16.99
2022-12-31T22:48:14.070Z,16.99
2022-12-31T22:51:19.986Z,16.84
2022-12-31T22:54:22.135Z,16.80
2022-12-31T22:57:24.138Z,16.58
2022-12-31T23:00:39.801Z,16.61
2022-12-31T23:03:42.949Z,16.53
2022-12-31T23:06:46.838Z,16.51
2022-12-31T23:10:08.192Z,16.51
2022-12-31T23:13:30.882Z,16.41
2022-12-31T23:20:52.223Z,16.35
2022-12-31T23:23:57.694Z,16.28
2022-12-31T23:27:28.944Z,16.19
2022-12-31T23:30:31.064Z,16.12
2022-12-31T23:33:35.545Z,16.10
2022-12-31T23:36:42.977Z,16.05
2022-12-31T23:39:48.220Z,16.06
2022-12-31T23:42:50.525Z,15.95
2022-12-31T23:45:52.768Z,15.92
2022-12-31T23:48:54.767Z,15.90
2022-12-31T23:51:59.669Z,15.91
2022-12-31T23:55:03.836Z,15.78
2022-12-31T23:58:07.523Z,15.76
